Main page
METAR-TAF:

METAR-TAF

Airports :

Rabat–Salé Airport

Rabat, Morocco

latitude: 34-03N, longitude: 006-46W, elevation: 84 m

Current weather observation

The report was made 19 minutes ago, at 22:00 UTC
Wind 6 kt from the West/Southwest
Temperature 19°C
Humidity 83%
Pressure 1015 hPa
Visibility: 7000 m
Scattered clouds at a height of 1600 ft
Scattered clouds at a height of 2600 ft

METAR: GMME 162200Z 24006KT 7000 SCT016 SCT026 19/16 Q1015 NOSIG

Time: 23:19 (22:19 UTC)

Forecast

The report was made 5 hours and 19 minutes ago, at 17:00 UTC
Forecast valid from 16 at 18 UTC to 17 at 24 UTC
Wind 10 kt from the Northwest
Visibility: 7000 m
Scattered clouds at a height of 1600 ft
Scattered clouds at a height of 2600 ft
Becoming
from 16 at 18 UTC to 16 at 21 UTC
Wind 7 kt from the West/Southwest

TAF: GMME 161700Z 1618/1724 31010KT 7000 SCT016 SCT026 BECMG 1618/1621 24007KT

Weather observations and forecasts of more than 4000 airports (METAR and TAF reports).

The available stations are represented by yellow and red dots on the map.

Hover mouse over dot to see the name of the station.

Then click to see weather observations and forecasts.

To change the map : click on the green buttons with a black cross to zoom in, on the green button with a dash to zoom out, or on the green arrows for adjacent maps.


METAR-TAF: